sensor_id;sensor_type;location;lat;lon;timestamp;P1;durP1;ratioP1;P2;durP2;ratioP2
30934;SDS011;51033;42.648;23.292;2023-03-01T00:01:49;7.82;;;6.35;;
30934;SDS011;51033;42.648;23.292;2023-03-01T00:04:14;10.75;;;6.63;;
30934;SDS011;51033;42.648;23.292;2023-03-01T00:06:40;10.07;;;6.22;;
30934;SDS011;51033;42.648;23.292;2023-03-01T00:09:13;7.75;;;5.93;;
30934;SDS011;51033;42.648;23.292;2023-03-01T00:11:39;9.23;;;6.60;;
30934;SDS011;51033;42.648;23.292;2023-03-01T00:14:05;8.98;;;6.07;;
30934;SDS011;51033;42.648;23.292;2023-03-01T00:16:36;6.53;;;5.78;;
30934;SDS011;51033;42.648;23.292;2023-03-01T00:19:06;7.38;;;5.30;;
30934;SDS011;51033;42.648;23.292;2023-03-01T00:21:32;6.18;;;4.80;;
30934;SDS011;51033;42.648;23.292;2023-03-01T00:24:00;6.75;;;5.70;;
30934;SDS011;51033;42.648;23.292;2023-03-01T00:26:26;8.38;;;5.65;;
30934;SDS011;51033;42.648;23.292;2023-03-01T00:28:51;11.90;;;7.75;;
30934;SDS011;51033;42.648;23.292;2023-03-01T00:31:19;10.52;;;6.55;;
30934;SDS011;51033;42.648;23.292;2023-03-01T00:33:45;8.02;;;6.32;;
30934;SDS011;51033;42.648;23.292;2023-03-01T00:36:11;8.50;;;6.90;;
30934;SDS011;51033;42.648;23.292;2023-03-01T00:38:39;7.10;;;6.40;;
30934;SDS011;51033;42.648;23.292;2023-03-01T00:41:07;8.23;;;6.93;;
30934;SDS011;51033;42.648;23.292;2023-03-01T00:43:33;7.55;;;6.38;;
30934;SDS011;51033;42.648;23.292;2023-03-01T00:46:02;7.63;;;6.93;;
30934;SDS011;51033;42.648;23.292;2023-03-01T00:48:29;9.48;;;7.90;;
30934;SDS011;51033;42.648;23.292;2023-03-01T00:50:54;7.53;;;6.07;;
30934;SDS011;51033;42.648;23.292;2023-03-01T00:53:19;8.23;;;6.70;;
30934;SDS011;51033;42.648;23.292;2023-03-01T00:55:45;7.53;;;6.22;;
30934;SDS011;51033;42.648;23.292;2023-03-01T00:58:10;6.30;;;5.40;;
30934;SDS011;51033;42.648;23.292;2023-03-01T01:00:35;6.90;;;4.93;;
30934;SDS011;51033;42.648;23.292;2023-03-01T01:03:01;6.95;;;5.55;;
30934;SDS011;51033;42.648;23.292;2023-03-01T01:05:27;7.82;;;5.68;;
30934;SDS011;51033;42.648;23.292;2023-03-01T01:07:52;5.43;;;4.72;;
30934;SDS011;51033;42.648;23.292;2023-03-01T01:10:17;6.57;;;5.15;;
30934;SDS011;51033;42.648;23.292;2023-03-01T01:12:46;9.40;;;4.90;;
30934;SDS011;51033;42.648;23.292;2023-03-01T01:15:12;5.45;;;4.50;;
30934;SDS011;51033;42.648;23.292;2023-03-01T01:17:39;6.30;;;4.65;;
30934;SDS011;51033;42.648;23.292;2023-03-01T01:20:05;5.55;;;4.40;;
30934;SDS011;51033;42.648;23.292;2023-03-01T01:22:31;4.18;;;3.65;;
30934;SDS011;51033;42.648;23.292;2023-03-01T01:24:56;5.97;;;4.40;;
30934;SDS011;51033;42.648;23.292;2023-03-01T01:27:21;6.10;;;4.35;;
30934;SDS011;51033;42.648;23.292;2023-03-01T01:29:47;5.07;;;4.15;;
30934;SDS011;51033;42.648;23.292;2023-03-01T01:32:13;4.88;;;4.32;;
30934;SDS011;51033;42.648;23.292;2023-03-01T01:34:38;4.35;;;3.70;;
30934;SDS011;51033;42.648;23.292;2023-03-01T01:37:04;4.90;;;4.18;;
30934;SDS011;51033;42.648;23.292;2023-03-01T01:39:32;5.45;;;4.45;;
30934;SDS011;51033;42.648;23.292;2023-03-01T01:41:59;4.25;;;3.85;;
30934;SDS011;51033;42.648;23.292;2023-03-01T01:44:25;3.97;;;3.58;;
30934;SDS011;51033;42.648;23.292;2023-03-01T01:46:56;3.67;;;3.22;;
30934;SDS011;51033;42.648;23.292;2023-03-01T01:49:32;3.45;;;3.15;;
30934;SDS011;51033;42.648;23.292;2023-03-01T01:52:07;3.90;;;3.45;;
30934;SDS011;51033;42.648;23.292;2023-03-01T01:57:06;3.22;;;3.00;;
30934;SDS011;51033;42.648;23.292;2023-03-01T01:59:36;4.00;;;3.13;;
30934;SDS011;51033;42.648;23.292;2023-03-01T02:02:02;3.50;;;3.20;;
30934;SDS011;51033;42.648;23.292;2023-03-01T02:04:29;3.80;;;3.40;;
30934;SDS011;51033;42.648;23.292;2023-03-01T02:06:58;3.50;;;3.20;;
30934;SDS011;51033;42.648;23.292;2023-03-01T02:09:28;3.60;;;3.28;;
30934;SDS011;51033;42.648;23.292;2023-03-01T02:11:56;3.58;;;3.28;;
30934;SDS011;51033;42.648;23.292;2023-03-01T02:14:22;3.75;;;3.45;;
30934;SDS011;51033;42.648;23.292;2023-03-01T02:16:48;3.10;;;2.85;;
30934;SDS011;51033;42.648;23.292;2023-03-01T02:19:26;4.20;;;3.63;;
30934;SDS011;51033;42.648;23.292;2023-03-01T02:22:12;3.63;;;3.33;;
30934;SDS011;51033;42.648;23.292;2023-03-01T02:27:33;4.00;;;3.40;;
30934;SDS011;51033;42.648;23.292;2023-03-01T02:30:06;3.70;;;3.40;;
30934;SDS011;51033;42.648;23.292;2023-03-01T02:32:32;3.78;;;3.47;;
30934;SDS011;51033;42.648;23.292;2023-03-01T02:34:59;3.83;;;3.53;;
30934;SDS011;51033;42.648;23.292;2023-03-01T02:37:24;3.83;;;3.47;;
30934;SDS011;51033;42.648;23.292;2023-03-01T02:39:58;4.22;;;3.85;;
30934;SDS011;51033;42.648;23.292;2023-03-01T02:42:31;4.38;;;3.65;;
30934;SDS011;51033;42.648;23.292;2023-03-01T02:45:01;4.43;;;4.03;;
30934;SDS011;51033;42.648;23.292;2023-03-01T02:47:28;4.38;;;3.97;;
30934;SDS011;51033;42.648;23.292;2023-03-01T02:49:53;5.20;;;4.70;;
30934;SDS011;51033;42.648;23.292;2023-03-01T02:55:11;5.05;;;4.55;;
30934;SDS011;51033;42.648;23.292;2023-03-01T02:57:42;5.43;;;4.40;;
30934;SDS011;51033;42.648;23.292;2023-03-01T03:00:09;5.75;;;5.15;;
30934;SDS011;51033;42.648;23.292;2023-03-01T03:02:44;5.60;;;4.63;;
30934;SDS011;51033;42.648;23.292;2023-03-01T03:05:15;6.68;;;5.43;;
30934;SDS011;51033;42.648;23.292;2023-03-01T03:07:46;6.57;;;5.88;;
30934;SDS011;51033;42.648;23.292;2023-03-01T03:10:18;8.35;;;7.07;;
30934;SDS011;51033;42.648;23.292;2023-03-01T03:12:52;7.18;;;6.40;;
30934;SDS011;51033;42.648;23.292;2023-03-01T03:15:21;9.32;;;7.05;;
30934;SDS011;51033;42.648;23.292;2023-03-01T03:17:47;8.13;;;6.97;;
30934;SDS011;51033;42.648;23.292;2023-03-01T03:20:14;9.02;;;7.43;;
30934;SDS011;51033;42.648;23.292;2023-03-01T03:22:47;9.55;;;7.63;;
30934;SDS011;51033;42.648;23.292;2023-03-01T03:25:15;10.23;;;7.68;;
30934;SDS011;51033;42.648;23.292;2023-03-01T03:27:41;8.98;;;8.02;;
30934;SDS011;51033;42.648;23.292;2023-03-01T03:30:10;10.10;;;7.47;;
30934;SDS011;51033;42.648;23.292;2023-03-01T03:32:39;9.32;;;7.53;;
30934;SDS011;51033;42.648;23.292;2023-03-01T03:35:06;12.05;;;9.23;;
30934;SDS011;51033;42.648;23.292;2023-03-01T03:37:40;11.70;;;7.32;;
30934;SDS011;51033;42.648;23.292;2023-03-01T03:40:25;9.65;;;7.80;;
30934;SDS011;51033;42.648;23.292;2023-03-01T03:42:53;11.93;;;8.57;;
30934;SDS011;51033;42.648;23.292;2023-03-01T03:48:13;9.55;;;7.60;;
30934;SDS011;51033;42.648;23.292;2023-03-01T03:50:40;12.05;;;8.43;;
30934;SDS011;51033;42.648;23.292;2023-03-01T03:53:07;10.75;;;7.75;;
30934;SDS011;51033;42.648;23.292;2023-03-01T03:55:36;10.57;;;8.35;;
30934;SDS011;51033;42.648;23.292;2023-03-01T03:58:04;11.13;;;8.38;;
30934;SDS011;51033;42.648;23.292;2023-03-01T04:00:38;13.70;;;9.57;;
30934;SDS011;51033;42.648;23.292;2023-03-01T04:03:24;11.02;;;7.85;;
30934;SDS011;51033;42.648;23.292;2023-03-01T04:05:52;11.32;;;8.48;;
30934;SDS011;51033;42.648;23.292;2023-03-01T04:08:18;11.38;;;7.78;;
30934;SDS011;51033;42.648;23.292;2023-03-01T04:10:46;10.07;;;6.85;;
30934;SDS011;51033;42.648;23.292;2023-03-01T04:13:15;11.02;;;6.75;;
30934;SDS011;51033;42.648;23.292;2023-03-01T04:15:42;10.48;;;7.43;;
30934;SDS011;51033;42.648;23.292;2023-03-01T04:18:08;11.82;;;7.20;;
30934;SDS011;51033;42.648;23.292;2023-03-01T04:20:37;9.05;;;7.18;;
30934;SDS011;51033;42.648;23.292;2023-03-01T04:23:05;8.07;;;6.90;;
30934;SDS011;51033;42.648;23.292;2023-03-01T04:25:49;9.27;;;7.60;;
30934;SDS011;51033;42.648;23.292;2023-03-01T04:28:18;10.55;;;6.85;;
30934;SDS011;51033;42.648;23.292;2023-03-01T04:30:52;8.57;;;6.70;;
30934;SDS011;51033;42.648;23.292;2023-03-01T04:33:18;7.88;;;5.40;;
30934;SDS011;51033;42.648;23.292;2023-03-01T04:35:44;8.32;;;7.07;;
30934;SDS011;51033;42.648;23.292;2023-03-01T04:38:10;7.78;;;6.57;;
30934;SDS011;51033;42.648;23.292;2023-03-01T04:40:35;9.07;;;6.82;;
30934;SDS011;51033;42.648;23.292;2023-03-01T04:43:02;9.13;;;6.60;;
30934;SDS011;51033;42.648;23.292;2023-03-01T04:45:28;8.80;;;6.82;;
30934;SDS011;51033;42.648;23.292;2023-03-01T04:47:54;7.68;;;6.30;;
30934;SDS011;51033;42.648;23.292;2023-03-01T04:50:23;11.70;;;7.28;;
30934;SDS011;51033;42.648;23.292;2023-03-01T04:52:48;8.10;;;6.15;;
30934;SDS011;51033;42.648;23.292;2023-03-01T04:55:14;10.07;;;7.30;;
30934;SDS011;51033;42.648;23.292;2023-03-01T04:57:40;10.70;;;7.68;;
30934;SDS011;51033;42.648;23.292;2023-03-01T05:00:06;9.43;;;7.07;;
30934;SDS011;51033;42.648;23.292;2023-03-01T05:05:18;10.65;;;6.75;;
30934;SDS011;51033;42.648;23.292;2023-03-01T05:07:45;10.38;;;7.50;;
30934;SDS011;51033;42.648;23.292;2023-03-01T05:10:10;11.48;;;7.85;;
30934;SDS011;51033;42.648;23.292;2023-03-01T05:12:36;9.55;;;7.18;;
30934;SDS011;51033;42.648;23.292;2023-03-01T05:15:02;8.50;;;6.78;;
30934;SDS011;51033;42.648;23.292;2023-03-01T05:17:32;10.35;;;8.02;;
30934;SDS011;51033;42.648;23.292;2023-03-01T05:19:59;11.48;;;6.72;;
30934;SDS011;51033;42.648;23.292;2023-03-01T05:22:27;7.18;;;6.47;;
30934;SDS011;51033;42.648;23.292;2023-03-01T05:24:52;9.25;;;6.15;;
30934;SDS011;51033;42.648;23.292;2023-03-01T05:27:19;6.72;;;6.03;;
30934;SDS011;51033;42.648;23.292;2023-03-01T05:29:47;7.03;;;5.28;;
30934;SDS011;51033;42.648;23.292;2023-03-01T05:32:13;7.97;;;5.70;;
30934;SDS011;51033;42.648;23.292;2023-03-01T05:34:40;6.63;;;5.45;;
30934;SDS011;51033;42.648;23.292;2023-03-01T05:37:07;8.43;;;5.78;;
30934;SDS011;51033;42.648;23.292;2023-03-01T05:39:33;9.13;;;6.63;;
30934;SDS011;51033;42.648;23.292;2023-03-01T05:41:59;7.50;;;6.28;;
30934;SDS011;51033;42.648;23.292;2023-03-01T05:44:26;8.10;;;5.40;;
30934;SDS011;51033;42.648;23.292;2023-03-01T05:46:53;7.47;;;6.35;;
30934;SDS011;51033;42.648;23.292;2023-03-01T05:49:20;11.10;;;7.00;;
30934;SDS011;51033;42.648;23.292;2023-03-01T05:51:49;6.18;;;5.57;;
30934;SDS011;51033;42.648;23.292;2023-03-01T05:54:17;8.88;;;5.45;;
30934;SDS011;51033;42.648;23.292;2023-03-01T05:56:43;7.35;;;5.13;;
30934;SDS011;51033;42.648;23.292;2023-03-01T05:59:10;7.50;;;4.75;;
30934;SDS011;51033;42.648;23.292;2023-03-01T06:01:35;4.75;;;4.20;;
30934;SDS011;51033;42.648;23.292;2023-03-01T06:04:01;4.93;;;3.55;;
30934;SDS011;51033;42.648;23.292;2023-03-01T06:06:33;7.32;;;4.47;;
30934;SDS011;51033;42.648;23.292;2023-03-01T06:08:59;5.57;;;4.22;;
30934;SDS011;51033;42.648;23.292;2023-03-01T06:11:25;5.95;;;4.28;;
30934;SDS011;51033;42.648;23.292;2023-03-01T06:13:50;4.53;;;3.92;;
30934;SDS011;51033;42.648;23.292;2023-03-01T06:16:15;3.50;;;3.13;;
30934;SDS011;51033;42.648;23.292;2023-03-01T06:18:41;5.40;;;4.00;;
30934;SDS011;51033;42.648;23.292;2023-03-01T06:21:07;6.15;;;3.60;;
30934;SDS011;51033;42.648;23.292;2023-03-01T06:23:37;4.25;;;3.38;;
30934;SDS011;51033;42.648;23.292;2023-03-01T06:26:07;4.43;;;3.40;;
30934;SDS011;51033;42.648;23.292;2023-03-01T06:28:33;6.30;;;3.83;;
30934;SDS011;51033;42.648;23.292;2023-03-01T06:30:58;6.30;;;3.45;;
30934;SDS011;51033;42.648;23.292;2023-03-01T06:33:24;4.95;;;3.35;;
30934;SDS011;51033;42.648;23.292;2023-03-01T06:35:49;6.13;;;3.95;;
30934;SDS011;51033;42.648;23.292;2023-03-01T06:38:15;12.05;;;4.78;;
30934;SDS011;51033;42.648;23.292;2023-03-01T06:40:43;4.93;;;4.00;;
30934;SDS011;51033;42.648;23.292;2023-03-01T06:43:09;5.75;;;4.07;;
30934;SDS011;51033;42.648;23.292;2023-03-01T06:45:34;4.03;;;3.03;;
30934;SDS011;51033;42.648;23.292;2023-03-01T06:48:03;6.72;;;3.50;;
30934;SDS011;51033;42.648;23.292;2023-03-01T06:50:29;6.53;;;3.33;;
30934;SDS011;51033;42.648;23.292;2023-03-01T06:52:55;3.22;;;2.30;;
30934;SDS011;51033;42.648;23.292;2023-03-01T06:55:21;6.13;;;2.60;;
30934;SDS011;51033;42.648;23.292;2023-03-01T06:57:46;4.05;;;3.05;;
30934;SDS011;51033;42.648;23.292;2023-03-01T07:00:12;2.72;;;2.47;;
30934;SDS011;51033;42.648;23.292;2023-03-01T07:02:38;3.33;;;2.53;;
30934;SDS011;51033;42.648;23.292;2023-03-01T07:05:03;7.47;;;2.55;;
30934;SDS011;51033;42.648;23.292;2023-03-01T07:07:29;4.15;;;3.10;;
30934;SDS011;51033;42.648;23.292;2023-03-01T07:09:54;3.72;;;3.08;;
30934;SDS011;51033;42.648;23.292;2023-03-01T07:12:20;5.18;;;3.60;;
30934;SDS011;51033;42.648;23.292;2023-03-01T07:14:45;8.40;;;4.03;;
30934;SDS011;51033;42.648;23.292;2023-03-01T07:17:11;8.10;;;4.93;;
30934;SDS011;51033;42.648;23.292;2023-03-01T07:19:36;8.30;;;4.32;;
30934;SDS011;51033;42.648;23.292;2023-03-01T07:22:03;8.50;;;5.07;;
30934;SDS011;51033;42.648;23.292;2023-03-01T07:24:29;6.65;;;4.63;;
30934;SDS011;51033;42.648;23.292;2023-03-01T07:26:54;12.48;;;4.95;;
30934;SDS011;51033;42.648;23.292;2023-03-01T07:29:21;6.03;;;4.68;;
30934;SDS011;51033;42.648;23.292;2023-03-01T07:31:47;8.80;;;5.38;;
30934;SDS011;51033;42.648;23.292;2023-03-01T07:34:12;9.45;;;4.68;;
30934;SDS011;51033;42.648;23.292;2023-03-01T07:36:38;5.60;;;3.88;;
30934;SDS011;51033;42.648;23.292;2023-03-01T07:39:04;5.07;;;4.35;;
30934;SDS011;51033;42.648;23.292;2023-03-01T07:41:30;5.30;;;4.13;;
30934;SDS011;51033;42.648;23.292;2023-03-01T07:43:55;8.00;;;4.40;;
30934;SDS011;51033;42.648;23.292;2023-03-01T07:46:21;4.03;;;3.38;;
30934;SDS011;51033;42.648;23.292;2023-03-01T07:48:47;5.88;;;4.57;;
30934;SDS011;51033;42.648;23.292;2023-03-01T07:51:12;6.72;;;4.28;;
30934;SDS011;51033;42.648;23.292;2023-03-01T07:53:38;6.55;;;4.57;;
30934;SDS011;51033;42.648;23.292;2023-03-01T07:56:05;7.07;;;4.32;;
30934;SDS011;51033;42.648;23.292;2023-03-01T07:58:33;5.03;;;2.80;;
30934;SDS011;51033;42.648;23.292;2023-03-01T08:01:01;3.33;;;2.85;;
30934;SDS011;51033;42.648;23.292;2023-03-01T08:03:27;7.10;;;3.35;;
30934;SDS011;51033;42.648;23.292;2023-03-01T08:05:53;5.13;;;2.72;;
30934;SDS011;51033;42.648;23.292;2023-03-01T08:08:18;4.22;;;3.15;;
30934;SDS011;51033;42.648;23.292;2023-03-01T08:10:43;5.82;;;3.45;;
30934;SDS011;51033;42.648;23.292;2023-03-01T08:13:09;4.82;;;3.35;;
30934;SDS011;51033;42.648;23.292;2023-03-01T08:15:34;3.92;;;3.40;;
30934;SDS011;51033;42.648;23.292;2023-03-01T08:18:00;3.88;;;3.50;;
30934;SDS011;51033;42.648;23.292;2023-03-01T08:20:25;3.42;;;3.03;;
30934;SDS011;51033;42.648;23.292;2023-03-01T08:22:51;3.72;;;2.80;;
30934;SDS011;51033;42.648;23.292;2023-03-01T08:25:16;4.38;;;3.88;;
30934;SDS011;51033;42.648;23.292;2023-03-01T08:27:42;3.53;;;3.20;;
30934;SDS011;51033;42.648;23.292;2023-03-01T08:30:07;4.35;;;3.58;;
30934;SDS011;51033;42.648;23.292;2023-03-01T08:32:37;3.90;;;3.53;;
30934;SDS011;51033;42.648;23.292;2023-03-01T08:35:04;4.88;;;3.42;;
30934;SDS011;51033;42.648;23.292;2023-03-01T08:37:30;4.20;;;3.35;;
30934;SDS011;51033;42.648;23.292;2023-03-01T08:39:58;4.72;;;3.75;;
30934;SDS011;51033;42.648;23.292;2023-03-01T08:42:29;7.10;;;4.25;;
30934;SDS011;51033;42.648;23.292;2023-03-01T08:44:55;5.72;;;3.85;;
30934;SDS011;51033;42.648;23.292;2023-03-01T08:47:21;3.47;;;3.17;;
30934;SDS011;51033;42.648;23.292;2023-03-01T08:49:48;6.68;;;3.65;;
30934;SDS011;51033;42.648;23.292;2023-03-01T08:52:14;6.05;;;3.47;;
30934;SDS011;51033;42.648;23.292;2023-03-01T08:54:40;3.72;;;3.40;;
30934;SDS011;51033;42.648;23.292;2023-03-01T08:57:05;4.15;;;3.30;;
30934;SDS011;51033;42.648;23.292;2023-03-01T08:59:30;4.22;;;3.55;;
30934;SDS011;51033;42.648;23.292;2023-03-01T09:02:00;5.00;;;3.47;;
30934;SDS011;51033;42.648;23.292;2023-03-01T09:04:25;5.85;;;3.88;;
30934;SDS011;51033;42.648;23.292;2023-03-01T09:06:51;5.22;;;3.13;;
30934;SDS011;51033;42.648;23.292;2023-03-01T09:09:17;4.82;;;3.45;;
30934;SDS011;51033;42.648;23.292;2023-03-01T09:11:43;3.70;;;3.17;;
30934;SDS011;51033;42.648;23.292;2023-03-01T09:14:11;8.50;;;3.95;;
30934;SDS011;51033;42.648;23.292;2023-03-01T09:16:37;6.20;;;3.28;;
30934;SDS011;51033;42.648;23.292;2023-03-01T09:19:03;6.75;;;3.72;;
30934;SDS011;51033;42.648;23.292;2023-03-01T09:21:29;4.90;;;4.43;;
30934;SDS011;51033;42.648;23.292;2023-03-01T09:23:55;6.80;;;4.57;;
30934;SDS011;51033;42.648;23.292;2023-03-01T09:26:22;5.07;;;3.72;;
30934;SDS011;51033;42.648;23.292;2023-03-01T09:28:49;5.72;;;4.20;;
30934;SDS011;51033;42.648;23.292;2023-03-01T09:31:19;4.72;;;4.18;;
30934;SDS011;51033;42.648;23.292;2023-03-01T09:33:46;6.72;;;3.60;;
30934;SDS011;51033;42.648;23.292;2023-03-01T09:36:14;5.30;;;3.88;;
30934;SDS011;51033;42.648;23.292;2023-03-01T09:38:44;4.03;;;3.33;;
30934;SDS011;51033;42.648;23.292;2023-03-01T09:41:10;7.03;;;3.33;;
30934;SDS011;51033;42.648;23.292;2023-03-01T09:46:11;5.18;;;3.63;;
30934;SDS011;51033;42.648;23.292;2023-03-01T09:48:42;5.10;;;3.70;;
30934;SDS011;51033;42.648;23.292;2023-03-01T09:51:16;4.40;;;3.03;;
30934;SDS011;51033;42.648;23.292;2023-03-01T09:53:44;3.85;;;3.42;;
30934;SDS011;51033;42.648;23.292;2023-03-01T10:01:40;3.80;;;3.25;;
30934;SDS011;51033;42.648;23.292;2023-03-01T10:10:10;7.25;;;3.80;;
30934;SDS011;51033;42.648;23.292;2023-03-01T10:12:50;5.63;;;4.05;;
30934;SDS011;51033;42.648;23.292;2023-03-01T10:15:18;5.78;;;4.00;;
30934;SDS011;51033;42.648;23.292;2023-03-01T10:18:05;9.77;;;5.22;;
30934;SDS011;51033;42.648;23.292;2023-03-01T10:23:13;5.70;;;4.07;;
30934;SDS011;51033;42.648;23.292;2023-03-01T10:31:12;6.60;;;4.93;;
30934;SDS011;51033;42.648;23.292;2023-03-01T10:33:40;10.05;;;5.05;;
30934;SDS011;51033;42.648;23.292;2023-03-01T10:36:06;5.88;;;4.72;;
30934;SDS011;51033;42.648;23.292;2023-03-01T10:38:53;5.43;;;4.78;;
30934;SDS011;51033;42.648;23.292;2023-03-01T10:41:23;11.20;;;5.22;;
30934;SDS011;51033;42.648;23.292;2023-03-01T10:43:52;6.10;;;4.70;;
30934;SDS011;51033;42.648;23.292;2023-03-01T10:46:33;8.70;;;6.20;;
30934;SDS011;51033;42.648;23.292;2023-03-01T10:49:10;5.22;;;4.47;;
30934;SDS011;51033;42.648;23.292;2023-03-01T10:51:43;10.73;;;5.25;;
30934;SDS011;51033;42.648;23.292;2023-03-01T10:54:30;9.63;;;4.70;;
30934;SDS011;51033;42.648;23.292;2023-03-01T10:56:58;5.32;;;4.20;;
30934;SDS011;51033;42.648;23.292;2023-03-01T11:07:46;6.78;;;4.70;;
30934;SDS011;51033;42.648;23.292;2023-03-01T11:12:48;5.53;;;4.22;;
30934;SDS011;51033;42.648;23.292;2023-03-01T11:15:20;7.35;;;4.40;;
30934;SDS011;51033;42.648;23.292;2023-03-01T11:17:48;8.85;;;4.00;;
30934;SDS011;51033;42.648;23.292;2023-03-01T11:22:53;5.78;;;4.40;;
30934;SDS011;51033;42.648;23.292;2023-03-01T11:25:23;5.80;;;5.20;;
30934;SDS011;51033;42.648;23.292;2023-03-01T11:27:52;8.48;;;5.85;;
30934;SDS011;51033;42.648;23.292;2023-03-01T11:33:18;7.40;;;5.65;;
30934;SDS011;51033;42.648;23.292;2023-03-01T11:36:00;10.10;;;4.97;;
30934;SDS011;51033;42.648;23.292;2023-03-01T11:38:44;10.38;;;5.22;;
30934;SDS011;51033;42.648;23.292;2023-03-01T11:41:17;8.85;;;6.10;;
30934;SDS011;51033;42.648;23.292;2023-03-01T11:52:26;5.68;;;4.45;;
30934;SDS011;51033;42.648;23.292;2023-03-01T12:05:45;6.40;;;5.25;;
30934;SDS011;51033;42.648;23.292;2023-03-01T12:11:49;6.25;;;5.60;;
30934;SDS011;51033;42.648;23.292;2023-03-01T12:21:54;6.25;;;5.25;;
30934;SDS011;51033;42.648;23.292;2023-03-01T12:24:45;5.05;;;4.35;;
30934;SDS011;51033;42.648;23.292;2023-03-01T12:27:27;6.78;;;4.97;;
30934;SDS011;51033;42.648;23.292;2023-03-01T12:46:10;6.90;;;6.18;;
30934;SDS011;51033;42.648;23.292;2023-03-01T12:49:18;6.22;;;4.75;;
30934;SDS011;51033;42.648;23.292;2023-03-01T12:51:59;4.90;;;4.40;;
30934;SDS011;51033;42.648;23.292;2023-03-01T12:54:35;7.13;;;5.38;;
30934;SDS011;51033;42.648;23.292;2023-03-01T13:00:15;6.18;;;5.18;;
30934;SDS011;51033;42.648;23.292;2023-03-01T13:08:39;5.47;;;4.55;;
30934;SDS011;51033;42.648;23.292;2023-03-01T13:11:25;5.30;;;3.88;;
30934;SDS011;51033;42.648;23.292;2023-03-01T13:13:51;4.82;;;3.97;;
30934;SDS011;51033;42.648;23.292;2023-03-01T13:16:38;7.32;;;4.53;;
30934;SDS011;51033;42.648;23.292;2023-03-01T13:19:20;6.72;;;4.88;;
30934;SDS011;51033;42.648;23.292;2023-03-01T13:21:48;6.75;;;5.18;;
30934;SDS011;51033;42.648;23.292;2023-03-01T13:29:49;7.85;;;4.50;;
30934;SDS011;51033;42.648;23.292;2023-03-01T13:32:37;7.07;;;5.13;;
30934;SDS011;51033;42.648;23.292;2023-03-01T13:37:43;7.15;;;5.60;;
30934;SDS011;51033;42.648;23.292;2023-03-01T13:42:44;13.82;;;5.25;;
30934;SDS011;51033;42.648;23.292;2023-03-01T13:45:16;8.70;;;5.85;;
30934;SDS011;51033;42.648;23.292;2023-03-01T13:47:45;8.63;;;5.60;;
30934;SDS011;51033;42.648;23.292;2023-03-01T13:50:32;7.85;;;5.30;;
30934;SDS011;51033;42.648;23.292;2023-03-01T13:53:03;9.60;;;5.30;;
30934;SDS011;51033;42.648;23.292;2023-03-01T13:55:35;6.85;;;4.78;;
30934;SDS011;51033;42.648;23.292;2023-03-01T14:00:43;11.25;;;5.30;;
30934;SDS011;51033;42.648;23.292;2023-03-01T14:05:38;7.97;;;4.43;;
30934;SDS011;51033;42.648;23.292;2023-03-01T14:08:14;7.00;;;4.97;;
30934;SDS011;51033;42.648;23.292;2023-03-01T14:11:33;6.97;;;5.05;;
30934;SDS011;51033;42.648;23.292;2023-03-01T14:13:47;7.47;;;5.13;;
30934;SDS011;51033;42.648;23.292;2023-03-01T14:19:17;9.55;;;5.15;;
30934;SDS011;51033;42.648;23.292;2023-03-01T14:21:58;9.75;;;5.10;;
30934;SDS011;51033;42.648;23.292;2023-03-01T14:24:27;9.98;;;5.55;;
30934;SDS011;51033;42.648;23.292;2023-03-01T14:26:54;7.00;;;4.63;;
30934;SDS011;51033;42.648;23.292;2023-03-01T14:29:37;9.52;;;5.47;;
30934;SDS011;51033;42.648;23.292;2023-03-01T14:34:34;9.02;;;4.85;;
30934;SDS011;51033;42.648;23.292;2023-03-01T14:40:00;6.50;;;4.78;;
30934;SDS011;51033;42.648;23.292;2023-03-01T14:42:34;8.25;;;4.47;;
30934;SDS011;51033;42.648;23.292;2023-03-01T14:45:02;8.32;;;5.25;;
30934;SDS011;51033;42.648;23.292;2023-03-01T14:47:32;12.10;;;5.05;;
30934;SDS011;51033;42.648;23.292;2023-03-01T14:52:51;14.63;;;5.78;;
30934;SDS011;51033;42.648;23.292;2023-03-01T14:55:29;6.68;;;4.70;;
30934;SDS011;51033;42.648;23.292;2023-03-01T14:57:55;6.40;;;5.68;;
30934;SDS011;51033;42.648;23.292;2023-03-01T15:00:23;8.75;;;5.43;;
30934;SDS011;51033;42.648;23.292;2023-03-01T15:02:52;11.52;;;6.05;;
30934;SDS011;51033;42.648;23.292;2023-03-01T15:05:24;8.30;;;4.95;;
30934;SDS011;51033;42.648;23.292;2023-03-01T15:07:54;9.10;;;5.00;;
30934;SDS011;51033;42.648;23.292;2023-03-01T15:10:22;5.80;;;4.65;;
30934;SDS011;51033;42.648;23.292;2023-03-01T15:12:55;6.77;;;5.00;;
30934;SDS011;51033;42.648;23.292;2023-03-01T15:17:50;7.53;;;6.00;;
30934;SDS011;51033;42.648;23.292;2023-03-01T15:20:20;10.95;;;6.50;;
30934;SDS011;51033;42.648;23.292;2023-03-01T15:22:51;12.73;;;6.00;;
30934;SDS011;51033;42.648;23.292;2023-03-01T15:25:18;9.73;;;6.03;;
30934;SDS011;51033;42.648;23.292;2023-03-01T15:27:46;9.73;;;5.32;;
30934;SDS011;51033;42.648;23.292;2023-03-01T15:30:32;9.82;;;6.90;;
30934;SDS011;51033;42.648;23.292;2023-03-01T15:36:29;10.75;;;6.53;;
30934;SDS011;51033;42.648;23.292;2023-03-01T15:38:58;9.15;;;6.97;;
30934;SDS011;51033;42.648;23.292;2023-03-01T15:41:33;10.80;;;7.40;;
30934;SDS011;51033;42.648;23.292;2023-03-01T15:44:25;12.95;;;6.65;;
30934;SDS011;51033;42.648;23.292;2023-03-01T15:46:51;9.13;;;6.30;;
30934;SDS011;51033;42.648;23.292;2023-03-01T15:52:05;10.77;;;6.78;;
30934;SDS011;51033;42.648;23.292;2023-03-01T15:54:38;10.48;;;5.80;;
30934;SDS011;51033;42.648;23.292;2023-03-01T15:57:07;12.25;;;6.65;;
30934;SDS011;51033;42.648;23.292;2023-03-01T15:59:38;13.07;;;6.22;;
30934;SDS011;51033;42.648;23.292;2023-03-01T16:02:08;9.55;;;6.70;;
30934;SDS011;51033;42.648;23.292;2023-03-01T16:04:34;9.00;;;7.30;;
30934;SDS011;51033;42.648;23.292;2023-03-01T16:06:59;11.77;;;5.78;;
30934;SDS011;51033;42.648;23.292;2023-03-01T16:09:26;9.27;;;6.55;;
30934;SDS011;51033;42.648;23.292;2023-03-01T16:11:52;8.45;;;6.30;;
30934;SDS011;51033;42.648;23.292;2023-03-01T16:14:18;7.97;;;5.47;;
30934;SDS011;51033;42.648;23.292;2023-03-01T16:16:44;8.30;;;6.05;;
30934;SDS011;51033;42.648;23.292;2023-03-01T16:19:10;10.25;;;7.25;;
30934;SDS011;51033;42.648;23.292;2023-03-01T16:21:36;10.15;;;6.57;;
30934;SDS011;51033;42.648;23.292;2023-03-01T16:24:03;11.30;;;6.22;;
30934;SDS011;51033;42.648;23.292;2023-03-01T16:26:29;8.23;;;5.18;;
30934;SDS011;51033;42.648;23.292;2023-03-01T16:28:55;8.73;;;6.38;;
30934;SDS011;51033;42.648;23.292;2023-03-01T16:31:21;8.05;;;5.45;;
30934;SDS011;51033;42.648;23.292;2023-03-01T16:33:47;8.18;;;5.30;;
30934;SDS011;51033;42.648;23.292;2023-03-01T16:36:18;8.85;;;6.53;;
30934;SDS011;51033;42.648;23.292;2023-03-01T16:38:48;6.30;;;5.50;;
30934;SDS011;51033;42.648;23.292;2023-03-01T16:41:14;8.23;;;5.57;;
30934;SDS011;51033;42.648;23.292;2023-03-01T16:43:41;7.82;;;5.88;;
30934;SDS011;51033;42.648;23.292;2023-03-01T16:46:11;7.28;;;5.20;;
30934;SDS011;51033;42.648;23.292;2023-03-01T16:48:40;8.18;;;5.07;;
30934;SDS011;51033;42.648;23.292;2023-03-01T16:51:06;17.77;;;6.65;;
30934;SDS011;51033;42.648;23.292;2023-03-01T16:53:33;13.20;;;6.68;;
30934;SDS011;51033;42.648;23.292;2023-03-01T16:56:01;12.55;;;6.45;;
30934;SDS011;51033;42.648;23.292;2023-03-01T16:58:29;12.55;;;6.85;;
30934;SDS011;51033;42.648;23.292;2023-03-01T17:00:54;10.65;;;6.85;;
30934;SDS011;51033;42.648;23.292;2023-03-01T17:03:22;9.93;;;6.53;;
30934;SDS011;51033;42.648;23.292;2023-03-01T17:05:49;8.38;;;5.88;;
30934;SDS011;51033;42.648;23.292;2023-03-01T17:08:15;8.68;;;5.32;;